Lake Dallas, Texas
Current Conditions -  °F | °C
As of 12:07 PM on Sunday 21 Dec 2014 (Local Time) from KDTO Reporting Station
Overcast Overcast  
Wind Chill: 44°   Ceiling: 1400
Heat Index: 49°   Visibility: 7mi
Dew Point: 44°   Wind: 12mph
Humidity: 83%   Direction: 170°S
Pressure: 30"   Gusts: NA
Location:  33.12°N, 97.03°W
Report Text: KDTO 211807Z 17010KT 7SM OVC014 09/07 A3000 RMK AO2 T00940067
Loading
Personal Weather Stations






























Interactive Weather Map New forecast layout! Learn more

10-Day Weather Forecast

Advertisements
Track Severe Weather on mobile